Aérodrome :
LOGIN :

S'inscrire | Disclaimer

   EN    FR    IT 

 










Légende :    VFR   VFR Marginal   IFR   IFR Intensif   IFR Très Intensif
Visi : 
Plafond : 
>= 8 km
>= 3000ft
5 à 8 km
1000 à 3000 ft
1500m à 5 km
500 à 1000 ft
800 à 1500m
200 à 500 ft
< 800m
< 200 ft
Symboles :   Orages  Brouillard  Fortes neiges  Fortes précipitations  Vent > 20 kt
SIGMETs :   Divers  Orages  Givrage  Turbulence  Onde Orograph.  Cendres Volcan.






- Altitude de l'aérodrome : 291 ft
- Code IATA : ORY


LFPO - Paris-Orly

DERNIER METAR :
  • 240130Z 05005KT 4000 BR NSC M01/M01 Q1024 TEMPO 2000 BR BKN004

METARs EXPIRÉS :
  • 240100Z 07003KT 4500 BR NSC M01/M01 Q1024 TEMPO 2000 BR BKN004
  • 240030Z 08004KT 040V100 4500 BR FEW005 SCT260 M01/M01 Q1024 TEMPO 2000 BR BKN004
  • 240000Z 06004KT 5000 BR NSC M00/M01 Q1025 TEMPO 2000 BR BKN004
  • 232330Z 03006KT 5000 BR NSC 00/M01 Q1025 TEMPO 4000 BR BKN007
  • 232300Z 02006KT 5000 BR NSC M00/M01 Q1024 TEMPO 4000 BR BKN007

TAF TAF LFPO
Valide du 24 à 00h jusqu'au 25 à 06h UTC


232300Z 2400/2506 04003KT 4000 BR FEW004
BECMG 2400/2403 2000 BR BKN004
PROB40
TEMPO 2403/2409 0500 FG VV///
PROB30
TEMPO 2405/2408 0500 FZFG
BECMG 2409/2412 9999 NSW FEW009
PROB30
TEMPO 2412/2416 BKN009
BECMG 2416/2418 OVC010
BECMG 2418/2421 2000 BR OVC005
PROB40
TEMPO 2423/2506 0500 FG VV///
ATIS : +33 1 49 75 65 80



MET'MAP, la Météo Aéronautique d'un coup d'oeil ! - Copyright ORBIFLY Décembre 2007 - Disclaimer

ORBIFLY MET'MAP TEAM :

Programmation & Développement : Alexandra Zaïnal
Sur une idée originale de : Baudouin d'Aumeries
Assistance à la programmation : Marc-Olivier Méhu
Soutien technique & logistique : Manuel Goepfert

Contact : metmap@orbifly.com




SOURCES & CREDITS :

   NOAA